Detall de PIREP

Printer-friendly versionPDF version

[2014/11/02 17:59:00]
Flight IATA:CT3217
Pilot Number:012
Company ICAO:CAT
Aircraft Type:B744/E
PAX:332
Departing Airport: EIDW
Destination Airport: LEPA
Alternate Airport:LEBL
Online: VATSIM
Route:PESIT L149 BAKUR UL149 DEVOM UN26 BHD UN862 DIN UP87 GODAN UN862 TERPO UM616 TUPAR UM184 CNA UN863 AGN UN727 LOMRA UN859 BCN UZ167 LORES
Flight Level:F410
No Slew and time accel
No pause
Crash detect
Detect pilot in Cockpit between each 30 and 45 minutes
17:59 Zero fuel Weight: 466397 Lbs, Fuel Weight: 75216 Lbs
17:59 VATSIM:EIDW 021730Z 24010KT 9999 FEW022CB SCT040 BKN220 08/06 Q0994 NOSIG
17:59 VATSIM:LEPA 021730Z 17001KT 9999 FEW020 21/15 Q1019 NOSIG
18:00 Parking Brakes off
18:03 Take-off
18:03 Take off Weight: 540350 Lbs
18:03 Wind: 243º @ 010 Knots Heading: 276º
18:03 POS N53º 25´ 16´´ W006º 16´ 14´´
18:03 Gear Up: 178 Knots
18:03 Flaps:3 at 178 Knots
18:03 Flaps:2 at 214 Knots
18:03 Flaps:1 at 213 Knots
18:04 Flaps:0 at 255 Knots
18:18 Wind:242º@043 Knots Heading: 159º Ground Speed: 495 Knots Altitude 36151 ft
18:33 Wind:246º@041 Knots Heading: 157º Ground Speed: 495 Knots Altitude 40666 ft
18:36 TOC
18:36 Fuel Weight: 56710 Lb
18:47 TOD
18:47 Fuel Weight: 53495 Lb
18:48 Wind:247º@039 Knots Heading: 173º Ground Speed: 479 Knots Altitude 40843 ft
19:03 Wind:255º@039 Knots Heading: 142º Ground Speed: 506 Knots Altitude 40921 ft
19:18 Wind:245º@037 Knots Heading: 159º Ground Speed: 486 Knots Altitude 41026 ft
19:30 TOC
19:30 Fuel Weight: 39995 Lb
19:33 Wind:244º@028 Knots Heading: 159º Ground Speed: 482 Knots Altitude 41082 ft
19:47 TOD
19:47 Fuel Weight: 35025 Lb
19:48 Wind:228º@034 Knots Heading: 179º Ground Speed: 480 Knots Altitude 37175 ft
20:03 Wind:244º@009 Knots Heading: 152º Ground Speed: 279 Knots Altitude 7585 ft
20:04 Flaps:1 at 243 Knots
20:04 Flaps:2 at 233 Knots
20:06 Flaps:3 at 236 Knots
20:09 Flaps:4 at 196 Knots
20:09 Gear Down: 197 Knots
20:10 Flaps:5 at 179 Knots
20:10 Flaps:6 at 174 Knots
20:13 TouchDown:Rate -290 ft/min Speed: 123 Knots
20:13 VATSIM:LEPA 022000Z 06002KT 9999 FEW020 17/14 Q1019 NOSIG
20:13 Land
20:13 Wind:233º@000 Knots
20:13 Heading: 246º
20:13 Flight Duration: 02:10
20:13 Landing Weight: 495981 Lbs
20:13 POS N39º 32´ 54´´ E002º 44´ 48´´
20:16 Parking brakes on
20:16 Block to Block Duration: 02:16
20:16 Final Fuel: 28977 Lbls
20:16 Spent Fuel: 46239 Lbls
20:16 Flight Length: 963 NM
20:16 TOD Land Length: 132 NM

Exportar CSV

Powered by Drupal - Modified by Danger4k